sensor_id;sensor_type;location;lat;lon;timestamp;temperature;humidity
5868;DHT22;2960;49.142;7.768;2023-06-14T00:02:27;17.60;42.90
5868;DHT22;2960;49.142;7.768;2023-06-14T00:04:54;17.50;43.00
5868;DHT22;2960;49.142;7.768;2023-06-14T00:07:33;17.50;43.20
5868;DHT22;2960;49.142;7.768;2023-06-14T00:10:05;17.40;43.20
5868;DHT22;2960;49.142;7.768;2023-06-14T00:12:35;17.30;43.30
5868;DHT22;2960;49.142;7.768;2023-06-14T00:15:03;17.30;43.40
5868;DHT22;2960;49.142;7.768;2023-06-14T00:17:32;17.20;43.50
5868;DHT22;2960;49.142;7.768;2023-06-14T00:20:00;17.20;43.50
5868;DHT22;2960;49.142;7.768;2023-06-14T00:22:29;17.10;43.60
5868;DHT22;2960;49.142;7.768;2023-06-14T00:24:57;17.10;43.60
5868;DHT22;2960;49.142;7.768;2023-06-14T00:27:24;17.10;43.70
5868;DHT22;2960;49.142;7.768;2023-06-14T00:29:51;17.00;43.70
5868;DHT22;2960;49.142;7.768;2023-06-14T00:32:19;17.00;43.80
5868;DHT22;2960;49.142;7.768;2023-06-14T00:34:51;16.90;43.80
5868;DHT22;2960;49.142;7.768;2023-06-14T00:37:18;16.90;43.90
5868;DHT22;2960;49.142;7.768;2023-06-14T00:39:45;16.90;43.90
5868;DHT22;2960;49.142;7.768;2023-06-14T00:42:23;16.90;44.00
5868;DHT22;2960;49.142;7.768;2023-06-14T00:44:51;16.80;44.10
5868;DHT22;2960;49.142;7.768;2023-06-14T00:47:18;16.80;44.10
5868;DHT22;2960;49.142;7.768;2023-06-14T00:49:46;16.70;44.10
5868;DHT22;2960;49.142;7.768;2023-06-14T00:52:15;16.70;44.20
5868;DHT22;2960;49.142;7.768;2023-06-14T00:54:43;16.70;44.30
5868;DHT22;2960;49.142;7.768;2023-06-14T00:57:11;16.60;44.30
5868;DHT22;2960;49.142;7.768;2023-06-14T00:59:42;16.60;44.40
5868;DHT22;2960;49.142;7.768;2023-06-14T01:02:11;16.50;44.40
5868;DHT22;2960;49.142;7.768;2023-06-14T01:04:41;16.50;44.50
5868;DHT22;2960;49.142;7.768;2023-06-14T01:07:18;16.40;44.50
5868;DHT22;2960;49.142;7.768;2023-06-14T01:10:03;16.40;44.60
5868;DHT22;2960;49.142;7.768;2023-06-14T01:12:39;16.30;44.60
5868;DHT22;2960;49.142;7.768;2023-06-14T01:15:13;16.30;44.90
5868;DHT22;2960;49.142;7.768;2023-06-14T01:17:41;16.30;44.80
5868;DHT22;2960;49.142;7.768;2023-06-14T01:20:10;16.20;44.80
5868;DHT22;2960;49.142;7.768;2023-06-14T01:22:50;16.20;44.90
5868;DHT22;2960;49.142;7.768;2023-06-14T01:25:18;16.20;45.00
5868;DHT22;2960;49.142;7.768;2023-06-14T01:27:49;16.10;45.00
5868;DHT22;2960;49.142;7.768;2023-06-14T01:30:17;16.10;45.00
5868;DHT22;2960;49.142;7.768;2023-06-14T01:32:47;16.10;45.10
5868;DHT22;2960;49.142;7.768;2023-06-14T01:35:16;16.00;45.20
5868;DHT22;2960;49.142;7.768;2023-06-14T01:37:45;16.00;45.30
5868;DHT22;2960;49.142;7.768;2023-06-14T01:40:15;15.90;45.30
5868;DHT22;2960;49.142;7.768;2023-06-14T01:42:44;15.90;45.40
5868;DHT22;2960;49.142;7.768;2023-06-14T01:45:12;15.80;45.40
5868;DHT22;2960;49.142;7.768;2023-06-14T01:47:40;15.80;45.50
5868;DHT22;2960;49.142;7.768;2023-06-14T01:50:08;15.70;45.50
5868;DHT22;2960;49.142;7.768;2023-06-14T01:52:36;15.70;45.60
5868;DHT22;2960;49.142;7.768;2023-06-14T01:55:06;15.70;45.70
5868;DHT22;2960;49.142;7.768;2023-06-14T01:57:34;15.60;45.70
5868;DHT22;2960;49.142;7.768;2023-06-14T02:00:02;15.60;45.80
5868;DHT22;2960;49.142;7.768;2023-06-14T02:02:29;15.60;45.90
5868;DHT22;2960;49.142;7.768;2023-06-14T02:04:56;15.50;45.80
5868;DHT22;2960;49.142;7.768;2023-06-14T02:07:23;15.50;45.90
5868;DHT22;2960;49.142;7.768;2023-06-14T02:09:51;15.50;46.00
5868;DHT22;2960;49.142;7.768;2023-06-14T02:12:19;15.50;46.00
5868;DHT22;2960;49.142;7.768;2023-06-14T02:14:46;15.50;46.10
5868;DHT22;2960;49.142;7.768;2023-06-14T02:17:14;15.40;46.10
5868;DHT22;2960;49.142;7.768;2023-06-14T02:19:41;15.30;46.20
5868;DHT22;2960;49.142;7.768;2023-06-14T02:22:09;15.30;46.30
5868;DHT22;2960;49.142;7.768;2023-06-14T02:24:36;15.30;46.40
5868;DHT22;2960;49.142;7.768;2023-06-14T02:27:04;15.20;46.40
5868;DHT22;2960;49.142;7.768;2023-06-14T02:29:33;15.20;46.50
5868;DHT22;2960;49.142;7.768;2023-06-14T02:32:00;15.20;46.50
5868;DHT22;2960;49.142;7.768;2023-06-14T02:34:27;15.10;46.50
5868;DHT22;2960;49.142;7.768;2023-06-14T02:36:54;15.10;46.60
5868;DHT22;2960;49.142;7.768;2023-06-14T02:39:22;15.10;46.70
5868;DHT22;2960;49.142;7.768;2023-06-14T02:41:49;15.00;46.60
5868;DHT22;2960;49.142;7.768;2023-06-14T02:44:17;15.00;46.80
5868;DHT22;2960;49.142;7.768;2023-06-14T02:46:47;14.90;46.80
5868;DHT22;2960;49.142;7.768;2023-06-14T02:49:14;14.90;46.90
5868;DHT22;2960;49.142;7.768;2023-06-14T02:51:41;14.90;46.90
5868;DHT22;2960;49.142;7.768;2023-06-14T02:54:08;14.90;47.00
5868;DHT22;2960;49.142;7.768;2023-06-14T02:56:36;14.80;47.00
5868;DHT22;2960;49.142;7.768;2023-06-14T02:59:06;14.80;47.00
5868;DHT22;2960;49.142;7.768;2023-06-14T03:01:34;14.80;47.10
5868;DHT22;2960;49.142;7.768;2023-06-14T03:04:06;14.80;47.20
5868;DHT22;2960;49.142;7.768;2023-06-14T03:06:33;14.70;47.20
5868;DHT22;2960;49.142;7.768;2023-06-14T03:09:01;14.60;47.20
5868;DHT22;2960;49.142;7.768;2023-06-14T03:11:30;14.60;47.90
5868;DHT22;2960;49.142;7.768;2023-06-14T03:13:57;14.60;47.90
5868;DHT22;2960;49.142;7.768;2023-06-14T03:16:24;14.60;48.00
5868;DHT22;2960;49.142;7.768;2023-06-14T03:18:55;14.50;47.40
5868;DHT22;2960;49.142;7.768;2023-06-14T03:21:24;14.50;47.50
5868;DHT22;2960;49.142;7.768;2023-06-14T03:23:51;14.50;47.50
5868;DHT22;2960;49.142;7.768;2023-06-14T03:26:19;14.40;47.60
5868;DHT22;2960;49.142;7.768;2023-06-14T03:28:46;14.40;48.20
5868;DHT22;2960;49.142;7.768;2023-06-14T03:31:15;14.40;48.30
5868;DHT22;2960;49.142;7.768;2023-06-14T03:33:42;14.40;47.80
5868;DHT22;2960;49.142;7.768;2023-06-14T03:36:10;14.40;47.80
5868;DHT22;2960;49.142;7.768;2023-06-14T03:38:39;14.30;47.80
5868;DHT22;2960;49.142;7.768;2023-06-14T03:41:06;14.30;47.90
5868;DHT22;2960;49.142;7.768;2023-06-14T03:43:33;14.30;48.00
5868;DHT22;2960;49.142;7.768;2023-06-14T03:46:00;14.20;48.00
5868;DHT22;2960;49.142;7.768;2023-06-14T03:48:27;14.20;48.10
5868;DHT22;2960;49.142;7.768;2023-06-14T03:50:54;14.20;48.20
5868;DHT22;2960;49.142;7.768;2023-06-14T03:53:21;14.20;48.30
5868;DHT22;2960;49.142;7.768;2023-06-14T03:55:50;14.10;48.20
5868;DHT22;2960;49.142;7.768;2023-06-14T03:58:19;14.10;48.40
5868;DHT22;2960;49.142;7.768;2023-06-14T04:00:47;14.10;48.40
5868;DHT22;2960;49.142;7.768;2023-06-14T04:03:14;14.10;48.50
5868;DHT22;2960;49.142;7.768;2023-06-14T04:05:42;14.10;48.60
5868;DHT22;2960;49.142;7.768;2023-06-14T04:08:10;14.00;48.50
5868;DHT22;2960;49.142;7.768;2023-06-14T04:10:40;14.00;48.60
5868;DHT22;2960;49.142;7.768;2023-06-14T04:13:08;14.00;48.70
5868;DHT22;2960;49.142;7.768;2023-06-14T04:15:38;14.00;48.70
5868;DHT22;2960;49.142;7.768;2023-06-14T04:18:07;14.10;48.80
5868;DHT22;2960;49.142;7.768;2023-06-14T04:20:34;14.10;48.90
5868;DHT22;2960;49.142;7.768;2023-06-14T04:23:11;14.10;48.90
5868;DHT22;2960;49.142;7.768;2023-06-14T04:25:39;14.10;48.90
5868;DHT22;2960;49.142;7.768;2023-06-14T04:28:13;14.10;49.00
5868;DHT22;2960;49.142;7.768;2023-06-14T04:30:41;14.10;49.10
5868;DHT22;2960;49.142;7.768;2023-06-14T04:33:08;14.20;49.20
5868;DHT22;2960;49.142;7.768;2023-06-14T04:35:36;14.20;49.20
5868;DHT22;2960;49.142;7.768;2023-06-14T04:38:04;14.30;49.80
5868;DHT22;2960;49.142;7.768;2023-06-14T04:40:39;14.30;49.20
5868;DHT22;2960;49.142;7.768;2023-06-14T04:43:08;14.30;49.30
5868;DHT22;2960;49.142;7.768;2023-06-14T04:45:39;14.40;49.40
5868;DHT22;2960;49.142;7.768;2023-06-14T04:48:11;14.40;49.40
5868;DHT22;2960;49.142;7.768;2023-06-14T04:50:38;14.40;49.50
5868;DHT22;2960;49.142;7.768;2023-06-14T04:53:06;14.50;49.60
5868;DHT22;2960;49.142;7.768;2023-06-14T04:55:34;14.50;49.60
5868;DHT22;2960;49.142;7.768;2023-06-14T04:58:01;14.60;49.70
5868;DHT22;2960;49.142;7.768;2023-06-14T05:00:28;14.70;49.60
5868;DHT22;2960;49.142;7.768;2023-06-14T05:02:57;14.80;49.70
5868;DHT22;2960;49.142;7.768;2023-06-14T05:05:24;14.80;49.60
5868;DHT22;2960;49.142;7.768;2023-06-14T05:07:51;14.90;49.70
5868;DHT22;2960;49.142;7.768;2023-06-14T05:10:18;15.00;49.70
5868;DHT22;2960;49.142;7.768;2023-06-14T05:12:46;15.10;49.70
5868;DHT22;2960;49.142;7.768;2023-06-14T05:15:14;15.10;49.70
5868;DHT22;2960;49.142;7.768;2023-06-14T05:17:41;15.20;49.70
5868;DHT22;2960;49.142;7.768;2023-06-14T05:20:10;15.30;49.70
5868;DHT22;2960;49.142;7.768;2023-06-14T05:22:38;15.40;49.80
5868;DHT22;2960;49.142;7.768;2023-06-14T05:25:05;15.40;50.00
5868;DHT22;2960;49.142;7.768;2023-06-14T05:27:33;15.60;49.90
5868;DHT22;2960;49.142;7.768;2023-06-14T05:30:03;15.70;50.00
5868;DHT22;2960;49.142;7.768;2023-06-14T05:32:31;15.80;50.00
5868;DHT22;2960;49.142;7.768;2023-06-14T05:34:58;15.90;49.90
5868;DHT22;2960;49.142;7.768;2023-06-14T05:37:27;16.00;49.80
5868;DHT22;2960;49.142;7.768;2023-06-14T05:39:54;16.20;49.90
5868;DHT22;2960;49.142;7.768;2023-06-14T05:42:21;16.30;49.90
5868;DHT22;2960;49.142;7.768;2023-06-14T05:44:48;16.40;50.50
5868;DHT22;2960;49.142;7.768;2023-06-14T05:47:15;16.50;49.90
5868;DHT22;2960;49.142;7.768;2023-06-14T05:49:42;16.60;50.50
5868;DHT22;2960;49.142;7.768;2023-06-14T05:52:09;16.70;49.80
5868;DHT22;2960;49.142;7.768;2023-06-14T05:54:39;16.80;49.80
5868;DHT22;2960;49.142;7.768;2023-06-14T05:57:07;17.00;49.80
5868;DHT22;2960;49.142;7.768;2023-06-14T05:59:34;17.10;49.80
5868;DHT22;2960;49.142;7.768;2023-06-14T06:02:02;17.20;49.80
5868;DHT22;2960;49.142;7.768;2023-06-14T06:04:29;17.30;49.80
5868;DHT22;2960;49.142;7.768;2023-06-14T06:06:56;17.40;49.80
5868;DHT22;2960;49.142;7.768;2023-06-14T06:09:23;17.60;50.60
5868;DHT22;2960;49.142;7.768;2023-06-14T06:11:52;17.70;50.00
5868;DHT22;2960;49.142;7.768;2023-06-14T06:14:19;17.80;50.00
5868;DHT22;2960;49.142;7.768;2023-06-14T06:16:46;17.90;50.00
5868;DHT22;2960;49.142;7.768;2023-06-14T06:19:13;18.10;50.00
5868;DHT22;2960;49.142;7.768;2023-06-14T06:21:40;18.20;50.00
5868;DHT22;2960;49.142;7.768;2023-06-14T06:24:07;18.30;50.00
5868;DHT22;2960;49.142;7.768;2023-06-14T06:26:35;18.40;50.00
5868;DHT22;2960;49.142;7.768;2023-06-14T06:29:03;18.50;50.00
5868;DHT22;2960;49.142;7.768;2023-06-14T06:31:31;18.70;50.20
5868;DHT22;2960;49.142;7.768;2023-06-14T06:33:58;18.80;50.20
5868;DHT22;2960;49.142;7.768;2023-06-14T06:36:25;18.90;50.30
5868;DHT22;2960;49.142;7.768;2023-06-14T06:38:52;19.00;50.20
5868;DHT22;2960;49.142;7.768;2023-06-14T06:41:19;19.10;50.10
5868;DHT22;2960;49.142;7.768;2023-06-14T06:43:46;19.20;50.10
5868;DHT22;2960;49.142;7.768;2023-06-14T06:46:15;19.30;50.10
5868;DHT22;2960;49.142;7.768;2023-06-14T06:48:43;19.40;50.10
5868;DHT22;2960;49.142;7.768;2023-06-14T06:51:10;19.60;50.00
5868;DHT22;2960;49.142;7.768;2023-06-14T06:53:38;19.70;49.80
5868;DHT22;2960;49.142;7.768;2023-06-14T06:56:05;19.90;49.70
5868;DHT22;2960;49.142;7.768;2023-06-14T06:58:32;20.00;49.50
5868;DHT22;2960;49.142;7.768;2023-06-14T07:01:01;20.10;49.30
5868;DHT22;2960;49.142;7.768;2023-06-14T07:03:30;20.30;49.20
5868;DHT22;2960;49.142;7.768;2023-06-14T07:06:00;20.40;49.00
5868;DHT22;2960;49.142;7.768;2023-06-14T07:08:27;20.50;48.70
5868;DHT22;2960;49.142;7.768;2023-06-14T07:10:54;20.60;48.60
5868;DHT22;2960;49.142;7.768;2023-06-14T07:13:22;20.80;48.40
5868;DHT22;2960;49.142;7.768;2023-06-14T07:15:49;21.00;48.40
5868;DHT22;2960;49.142;7.768;2023-06-14T07:18:18;21.10;48.70
5868;DHT22;2960;49.142;7.768;2023-06-14T07:20:47;21.20;48.00
5868;DHT22;2960;49.142;7.768;2023-06-14T07:23:14;21.40;47.90
5868;DHT22;2960;49.142;7.768;2023-06-14T07:25:41;21.50;47.60
5868;DHT22;2960;49.142;7.768;2023-06-14T07:28:08;21.70;47.50
5868;DHT22;2960;49.142;7.768;2023-06-14T07:30:35;21.80;47.30
5868;DHT22;2960;49.142;7.768;2023-06-14T07:33:02;21.90;47.10
5868;DHT22;2960;49.142;7.768;2023-06-14T07:35:30;22.10;47.00
5868;DHT22;2960;49.142;7.768;2023-06-14T07:37:58;22.30;46.90
5868;DHT22;2960;49.142;7.768;2023-06-14T07:40:25;22.40;47.30
5868;DHT22;2960;49.142;7.768;2023-06-14T07:42:53;22.50;46.40
5868;DHT22;2960;49.142;7.768;2023-06-14T07:45:21;22.60;46.30
5868;DHT22;2960;49.142;7.768;2023-06-14T07:47:51;22.70;46.00
5868;DHT22;2960;49.142;7.768;2023-06-14T07:50:18;22.80;45.90
5868;DHT22;2960;49.142;7.768;2023-06-14T07:52:45;22.90;45.70
5868;DHT22;2960;49.142;7.768;2023-06-14T07:55:13;23.10;46.20
5868;DHT22;2960;49.142;7.768;2023-06-14T07:57:41;23.20;45.40
5868;DHT22;2960;49.142;7.768;2023-06-14T08:00:10;23.30;45.90
5868;DHT22;2960;49.142;7.768;2023-06-14T08:02:41;23.40;45.20
5868;DHT22;2960;49.142;7.768;2023-06-14T08:05:09;23.50;45.00
5868;DHT22;2960;49.142;7.768;2023-06-14T08:07:37;23.60;45.40
5868;DHT22;2960;49.142;7.768;2023-06-14T08:10:04;23.70;44.70
5868;DHT22;2960;49.142;7.768;2023-06-14T08:12:33;23.80;44.50
5868;DHT22;2960;49.142;7.768;2023-06-14T08:15:01;24.00;45.10
5868;DHT22;2960;49.142;7.768;2023-06-14T08:17:28;24.00;44.30
5868;DHT22;2960;49.142;7.768;2023-06-14T08:19:56;24.10;44.90
5868;DHT22;2960;49.142;7.768;2023-06-14T08:22:23;24.20;44.20
5868;DHT22;2960;49.142;7.768;2023-06-14T08:24:53;24.30;44.10
5868;DHT22;2960;49.142;7.768;2023-06-14T08:27:20;24.40;44.00
5868;DHT22;2960;49.142;7.768;2023-06-14T08:29:49;24.40;43.80
5868;DHT22;2960;49.142;7.768;2023-06-14T08:32:17;24.50;43.70
5868;DHT22;2960;49.142;7.768;2023-06-14T08:34:44;24.60;43.70
5868;DHT22;2960;49.142;7.768;2023-06-14T08:37:11;24.70;43.60
5868;DHT22;2960;49.142;7.768;2023-06-14T08:39:38;24.70;43.40
5868;DHT22;2960;49.142;7.768;2023-06-14T08:42:06;24.80;43.30
5868;DHT22;2960;49.142;7.768;2023-06-14T08:44:34;24.90;43.30
5868;DHT22;2960;49.142;7.768;2023-06-14T08:47:03;25.00;43.20
5868;DHT22;2960;49.142;7.768;2023-06-14T08:49:32;25.00;42.90
5868;DHT22;2960;49.142;7.768;2023-06-14T08:52:00;25.10;42.80
5868;DHT22;2960;49.142;7.768;2023-06-14T08:54:28;25.20;42.40
5868;DHT22;2960;49.142;7.768;2023-06-14T08:56:56;25.20;42.00
5868;DHT22;2960;49.142;7.768;2023-06-14T08:59:26;25.30;41.90
5868;DHT22;2960;49.142;7.768;2023-06-14T09:01:53;25.40;41.60
5868;DHT22;2960;49.142;7.768;2023-06-14T09:04:22;25.40;41.50
5868;DHT22;2960;49.142;7.768;2023-06-14T09:06:49;25.40;41.40
5868;DHT22;2960;49.142;7.768;2023-06-14T09:09:19;25.50;41.20
5868;DHT22;2960;49.142;7.768;2023-06-14T09:11:46;25.50;41.10
5868;DHT22;2960;49.142;7.768;2023-06-14T09:14:14;25.60;40.90
5868;DHT22;2960;49.142;7.768;2023-06-14T09:16:41;25.60;40.70
5868;DHT22;2960;49.142;7.768;2023-06-14T09:19:08;25.60;40.60
5868;DHT22;2960;49.142;7.768;2023-06-14T09:21:42;25.70;40.40
5868;DHT22;2960;49.142;7.768;2023-06-14T09:24:13;25.80;40.00
5868;DHT22;2960;49.142;7.768;2023-06-14T09:26:41;25.80;40.10
5868;DHT22;2960;49.142;7.768;2023-06-14T09:29:09;25.90;40.10
5868;DHT22;2960;49.142;7.768;2023-06-14T09:31:37;25.90;40.00
5868;DHT22;2960;49.142;7.768;2023-06-14T09:34:05;26.00;40.00
5868;DHT22;2960;49.142;7.768;2023-06-14T09:36:32;26.10;39.90
5868;DHT22;2960;49.142;7.768;2023-06-14T09:39:02;26.10;39.90
5868;DHT22;2960;49.142;7.768;2023-06-14T09:41:32;26.20;40.40
5868;DHT22;2960;49.142;7.768;2023-06-14T09:44:00;26.30;40.40
5868;DHT22;2960;49.142;7.768;2023-06-14T09:46:29;26.40;39.70
5868;DHT22;2960;49.142;7.768;2023-06-14T09:48:57;26.40;40.20
5868;DHT22;2960;49.142;7.768;2023-06-14T09:51:25;26.50;39.40
5868;DHT22;2960;49.142;7.768;2023-06-14T09:53:55;26.60;39.20
5868;DHT22;2960;49.142;7.768;2023-06-14T09:56:28;26.60;38.90
5868;DHT22;2960;49.142;7.768;2023-06-14T09:58:58;26.70;38.80
5868;DHT22;2960;49.142;7.768;2023-06-14T10:01:26;26.70;38.60
5868;DHT22;2960;49.142;7.768;2023-06-14T10:03:55;26.80;38.40
5868;DHT22;2960;49.142;7.768;2023-06-14T10:06:30;26.80;38.30
5868;DHT22;2960;49.142;7.768;2023-06-14T10:08:59;26.90;37.90
5868;DHT22;2960;49.142;7.768;2023-06-14T10:11:28;26.90;37.90
5868;DHT22;2960;49.142;7.768;2023-06-14T10:13:57;26.90;37.70
5868;DHT22;2960;49.142;7.768;2023-06-14T10:16:28;26.90;37.70
5868;DHT22;2960;49.142;7.768;2023-06-14T10:19:04;27.00;37.70
5868;DHT22;2960;49.142;7.768;2023-06-14T10:21:43;27.10;37.60
5868;DHT22;2960;49.142;7.768;2023-06-14T10:24:17;27.10;37.50
5868;DHT22;2960;49.142;7.768;2023-06-14T10:26:53;27.20;37.30
5868;DHT22;2960;49.142;7.768;2023-06-14T10:29:21;27.20;37.20
5868;DHT22;2960;49.142;7.768;2023-06-14T10:31:49;27.30;37.20
5868;DHT22;2960;49.142;7.768;2023-06-14T10:34:27;27.30;36.90
5868;DHT22;2960;49.142;7.768;2023-06-14T10:37:02;27.40;36.90
5868;DHT22;2960;49.142;7.768;2023-06-14T10:39:30;27.40;36.90
5868;DHT22;2960;49.142;7.768;2023-06-14T10:42:01;27.40;36.80
5868;DHT22;2960;49.142;7.768;2023-06-14T10:44:41;27.40;36.80
5868;DHT22;2960;49.142;7.768;2023-06-14T10:47:20;27.50;36.70
5868;DHT22;2960;49.142;7.768;2023-06-14T10:49:51;27.50;36.60
5868;DHT22;2960;49.142;7.768;2023-06-14T10:52:22;27.60;36.40
5868;DHT22;2960;49.142;7.768;2023-06-14T10:55:07;27.60;36.30
5868;DHT22;2960;49.142;7.768;2023-06-14T10:57:42;27.70;36.10
5868;DHT22;2960;49.142;7.768;2023-06-14T11:00:12;27.70;35.90
5868;DHT22;2960;49.142;7.768;2023-06-14T11:06:13;27.70;35.70
5868;DHT22;2960;49.142;7.768;2023-06-14T11:09:12;27.80;35.80
5868;DHT22;2960;49.142;7.768;2023-06-14T11:11:51;27.80;35.60
5868;DHT22;2960;49.142;7.768;2023-06-14T11:14:22;27.80;35.40
5868;DHT22;2960;49.142;7.768;2023-06-14T11:16:52;27.90;35.30
5868;DHT22;2960;49.142;7.768;2023-06-14T11:19:19;27.90;35.20
5868;DHT22;2960;49.142;7.768;2023-06-14T11:21:47;28.00;35.20
5868;DHT22;2960;49.142;7.768;2023-06-14T11:24:16;28.00;35.10
5868;DHT22;2960;49.142;7.768;2023-06-14T11:26:43;28.00;35.00
5868;DHT22;2960;49.142;7.768;2023-06-14T11:29:10;28.00;34.90
5868;DHT22;2960;49.142;7.768;2023-06-14T11:31:43;28.10;34.80
5868;DHT22;2960;49.142;7.768;2023-06-14T11:34:12;28.10;34.70
5868;DHT22;2960;49.142;7.768;2023-06-14T11:36:39;28.20;34.60
5868;DHT22;2960;49.142;7.768;2023-06-14T11:39:07;28.30;34.50
5868;DHT22;2960;49.142;7.768;2023-06-14T11:41:40;28.30;34.40
5868;DHT22;2960;49.142;7.768;2023-06-14T11:44:08;28.30;34.20
5868;DHT22;2960;49.142;7.768;2023-06-14T11:46:36;28.20;34.10
5868;DHT22;2960;49.142;7.768;2023-06-14T11:49:04;28.20;34.10
5868;DHT22;2960;49.142;7.768;2023-06-14T11:51:34;28.20;34.10
5868;DHT22;2960;49.142;7.768;2023-06-14T11:54:03;28.20;34.00
5868;DHT22;2960;49.142;7.768;2023-06-14T11:56:31;28.30;33.80
5868;DHT22;2960;49.142;7.768;2023-06-14T11:58:59;28.30;33.60
5868;DHT22;2960;49.142;7.768;2023-06-14T12:01:26;28.30;33.50
5868;DHT22;2960;49.142;7.768;2023-06-14T12:03:54;28.40;33.50
5868;DHT22;2960;49.142;7.768;2023-06-14T12:06:30;28.40;33.30
5868;DHT22;2960;49.142;7.768;2023-06-14T12:09:05;28.50;33.90
5868;DHT22;2960;49.142;7.768;2023-06-14T12:11:37;28.60;33.20
5868;DHT22;2960;49.142;7.768;2023-06-14T12:14:05;28.60;33.00
5868;DHT22;2960;49.142;7.768;2023-06-14T12:16:33;28.60;33.00
5868;DHT22;2960;49.142;7.768;2023-06-14T12:19:08;28.60;33.00
5868;DHT22;2960;49.142;7.768;2023-06-14T12:21:38;28.60;32.90
5868;DHT22;2960;49.142;7.768;2023-06-14T12:24:06;28.60;32.90
5868;DHT22;2960;49.142;7.768;2023-06-14T12:26:37;28.60;32.70
5868;DHT22;2960;49.142;7.768;2023-06-14T12:29:05;28.60;32.60
5868;DHT22;2960;49.142;7.768;2023-06-14T12:31:33;28.60;32.60
5868;DHT22;2960;49.142;7.768;2023-06-14T12:34:00;28.60;32.50
5868;DHT22;2960;49.142;7.768;2023-06-14T12:36:27;28.60;32.20
5868;DHT22;2960;49.142;7.768;2023-06-14T12:38:56;28.70;32.80
5868;DHT22;2960;49.142;7.768;2023-06-14T12:41:23;28.70;32.10
5868;DHT22;2960;49.142;7.768;2023-06-14T12:43:52;28.70;32.00
5868;DHT22;2960;49.142;7.768;2023-06-14T12:46:19;28.70;32.00
5868;DHT22;2960;49.142;7.768;2023-06-14T12:48:46;28.70;31.90
5868;DHT22;2960;49.142;7.768;2023-06-14T12:51:13;28.70;31.80
5868;DHT22;2960;49.142;7.768;2023-06-14T12:53:40;28.70;31.80
5868;DHT22;2960;49.142;7.768;2023-06-14T12:56:09;28.70;31.80
5868;DHT22;2960;49.142;7.768;2023-06-14T12:58:36;28.80;31.70
5868;DHT22;2960;49.142;7.768;2023-06-14T13:01:05;28.70;32.10
5868;DHT22;2960;49.142;7.768;2023-06-14T13:03:32;28.70;31.20
5868;DHT22;2960;49.142;7.768;2023-06-14T13:06:00;28.70;31.20
5868;DHT22;2960;49.142;7.768;2023-06-14T13:08:28;28.70;31.10
5868;DHT22;2960;49.142;7.768;2023-06-14T13:10:56;28.70;31.10
5868;DHT22;2960;49.142;7.768;2023-06-14T13:13:24;28.70;31.20
5868;DHT22;2960;49.142;7.768;2023-06-14T13:15:52;28.70;31.10
5868;DHT22;2960;49.142;7.768;2023-06-14T13:18:19;28.70;31.10
5868;DHT22;2960;49.142;7.768;2023-06-14T13:20:46;28.70;30.90
5868;DHT22;2960;49.142;7.768;2023-06-14T13:23:15;28.70;30.90
5868;DHT22;2960;49.142;7.768;2023-06-14T13:25:42;28.70;30.80
5868;DHT22;2960;49.142;7.768;2023-06-14T13:28:09;28.60;30.80
5868;DHT22;2960;49.142;7.768;2023-06-14T13:30:38;28.60;30.90
5868;DHT22;2960;49.142;7.768;2023-06-14T13:33:05;28.60;31.00
5868;DHT22;2960;49.142;7.768;2023-06-14T13:35:32;28.60;30.90
5868;DHT22;2960;49.142;7.768;2023-06-14T13:37:59;28.50;31.40
5868;DHT22;2960;49.142;7.768;2023-06-14T13:40:27;28.60;30.90
5868;DHT22;2960;49.142;7.768;2023-06-14T13:42:54;28.60;30.80
5868;DHT22;2960;49.142;7.768;2023-06-14T13:45:21;28.60;30.90
5868;DHT22;2960;49.142;7.768;2023-06-14T13:47:52;28.50;30.80
5868;DHT22;2960;49.142;7.768;2023-06-14T13:50:20;28.50;30.80
5868;DHT22;2960;49.142;7.768;2023-06-14T13:52:48;28.50;30.90
5868;DHT22;2960;49.142;7.768;2023-06-14T13:55:15;28.60;30.90
5868;DHT22;2960;49.142;7.768;2023-06-14T13:57:42;28.50;30.80
5868;DHT22;2960;49.142;7.768;2023-06-14T14:00:11;28.50;30.70
5868;DHT22;2960;49.142;7.768;2023-06-14T14:02:39;28.60;30.80
5868;DHT22;2960;49.142;7.768;2023-06-14T14:05:09;28.60;30.80
5868;DHT22;2960;49.142;7.768;2023-06-14T14:07:36;28.50;30.70
5868;DHT22;2960;49.142;7.768;2023-06-14T14:10:04;28.50;30.80
5868;DHT22;2960;49.142;7.768;2023-06-14T14:12:33;28.40;30.80
5868;DHT22;2960;49.142;7.768;2023-06-14T14:15:00;28.40;30.90
5868;DHT22;2960;49.142;7.768;2023-06-14T14:17:30;28.30;30.90
5868;DHT22;2960;49.142;7.768;2023-06-14T14:19:57;28.20;30.90
5868;DHT22;2960;49.142;7.768;2023-06-14T14:22:25;28.30;30.90
5868;DHT22;2960;49.142;7.768;2023-06-14T14:24:55;28.20;30.80
5868;DHT22;2960;49.142;7.768;2023-06-14T14:27:25;28.20;30.90
5868;DHT22;2960;49.142;7.768;2023-06-14T14:29:52;28.20;30.90
5868;DHT22;2960;49.142;7.768;2023-06-14T14:32:20;28.20;30.80
5868;DHT22;2960;49.142;7.768;2023-06-14T14:34:47;28.20;30.70
5868;DHT22;2960;49.142;7.768;2023-06-14T14:37:14;28.10;30.70
5868;DHT22;2960;49.142;7.768;2023-06-14T14:39:44;28.10;30.70
5868;DHT22;2960;49.142;7.768;2023-06-14T14:42:11;28.10;30.70
5868;DHT22;2960;49.142;7.768;2023-06-14T14:44:39;28.00;31.30
5868;DHT22;2960;49.142;7.768;2023-06-14T14:47:06;27.90;30.70
5868;DHT22;2960;49.142;7.768;2023-06-14T14:49:33;27.90;30.80
5868;DHT22;2960;49.142;7.768;2023-06-14T14:52:00;27.80;31.40
5868;DHT22;2960;49.142;7.768;2023-06-14T14:54:28;27.80;30.80
5868;DHT22;2960;49.142;7.768;2023-06-14T14:56:56;27.80;30.80
5868;DHT22;2960;49.142;7.768;2023-06-14T14:59:23;27.80;31.50
5868;DHT22;2960;49.142;7.768;2023-06-14T15:01:51;27.70;30.90
5868;DHT22;2960;49.142;7.768;2023-06-14T15:04:18;27.70;31.00
5868;DHT22;2960;49.142;7.768;2023-06-14T15:06:45;27.70;31.00
5868;DHT22;2960;49.142;7.768;2023-06-14T15:09:12;27.60;31.00
5868;DHT22;2960;49.142;7.768;2023-06-14T15:11:40;27.60;31.10
5868;DHT22;2960;49.142;7.768;2023-06-14T15:14:10;27.60;31.10
5868;DHT22;2960;49.142;7.768;2023-06-14T15:16:37;27.60;31.10
5868;DHT22;2960;49.142;7.768;2023-06-14T15:19:04;27.60;31.10
5868;DHT22;2960;49.142;7.768;2023-06-14T15:21:31;27.50;31.10
5868;DHT22;2960;49.142;7.768;2023-06-14T15:23:59;27.50;31.10
5868;DHT22;2960;49.142;7.768;2023-06-14T15:26:28;27.50;31.20
5868;DHT22;2960;49.142;7.768;2023-06-14T15:28:56;27.50;31.20
5868;DHT22;2960;49.142;7.768;2023-06-14T15:31:24;27.50;31.10
5868;DHT22;2960;49.142;7.768;2023-06-14T15:33:53;27.40;31.10
5868;DHT22;2960;49.142;7.768;2023-06-14T15:36:20;27.40;31.10
5868;DHT22;2960;49.142;7.768;2023-06-14T15:38:47;27.40;31.20
5868;DHT22;2960;49.142;7.768;2023-06-14T15:41:15;27.30;31.10
5868;DHT22;2960;49.142;7.768;2023-06-14T15:43:42;27.30;31.80
5868;DHT22;2960;49.142;7.768;2023-06-14T15:46:10;27.30;31.20
5868;DHT22;2960;49.142;7.768;2023-06-14T15:48:38;27.20;31.90
5868;DHT22;2960;49.142;7.768;2023-06-14T15:51:05;27.20;31.30
5868;DHT22;2960;49.142;7.768;2023-06-14T15:53:32;27.20;31.30
5868;DHT22;2960;49.142;7.768;2023-06-14T15:56:00;27.20;31.30
5868;DHT22;2960;49.142;7.768;2023-06-14T15:58:27;27.10;31.30
5868;DHT22;2960;49.142;7.768;2023-06-14T16:00:54;27.10;31.40
5868;DHT22;2960;49.142;7.768;2023-06-14T16:03:21;27.10;31.50
5868;DHT22;2960;49.142;7.768;2023-06-14T16:05:50;27.10;31.50
5868;DHT22;2960;49.142;7.768;2023-06-14T16:08:17;27.10;31.50
5868;DHT22;2960;49.142;7.768;2023-06-14T16:10:44;27.00;31.50
5868;DHT22;2960;49.142;7.768;2023-06-14T16:13:11;27.00;31.50
5868;DHT22;2960;49.142;7.768;2023-06-14T16:15:38;26.90;31.50